createdAt,value
2022-09-22T00:01:23.246Z,2.57
2022-09-22T00:03:53.215Z,2.13
2022-09-22T00:06:22.780Z,2.23
2022-09-22T00:08:52.309Z,1.90
2022-09-22T00:11:22.695Z,1.93
2022-09-22T00:13:54.028Z,2.23
2022-09-22T00:16:25.179Z,2.20
2022-09-22T00:18:53.136Z,2.20
2022-09-22T00:21:23.619Z,2.00
2022-09-22T00:23:52.091Z,2.40
2022-09-22T00:26:21.911Z,2.67
2022-09-22T00:28:51.154Z,2.60
2022-09-22T00:31:22.718Z,1.83
2022-09-22T00:33:51.430Z,2.47
2022-09-22T00:36:21.517Z,2.47
2022-09-22T00:38:50.452Z,2.63
2022-09-22T00:41:20.280Z,2.70
2022-09-22T00:43:50.352Z,2.20
2022-09-22T00:46:22.921Z,2.33
2022-09-22T00:48:54.309Z,3.23
2022-09-22T00:51:26.322Z,2.50
2022-09-22T00:53:56.633Z,2.47
2022-09-22T00:56:29.084Z,2.50
2022-09-22T00:58:59.802Z,2.30
2022-09-22T01:01:29.101Z,2.50
2022-09-22T01:03:57.289Z,2.30
2022-09-22T01:06:28.841Z,2.20
2022-09-22T01:08:57.584Z,2.20
2022-09-22T01:11:26.242Z,2.20
2022-09-22T01:14:04.924Z,2.10
2022-09-22T01:16:46.530Z,2.20
2022-09-22T01:19:43.628Z,2.10
2022-09-22T01:22:25.700Z,1.90
2022-09-22T01:25:12.470Z,2.13
2022-09-22T01:28:11.446Z,2.10
2022-09-22T01:30:47.512Z,2.03
2022-09-22T01:33:30.419Z,2.30
2022-09-22T01:36:12.413Z,1.90
2022-09-22T01:38:52.889Z,2.37
2022-09-22T01:41:25.541Z,2.07
2022-09-22T01:43:57.618Z,1.90
2022-09-22T01:46:30.933Z,1.80
2022-09-22T01:49:03.429Z,1.73
2022-09-22T01:51:35.939Z,2.20
2022-09-22T01:54:08.576Z,1.83
2022-09-22T01:56:38.625Z,2.10
2022-09-22T01:59:08.119Z,1.90
2022-09-22T02:01:40.721Z,2.20
2022-09-22T02:04:14.028Z,1.80
2022-09-22T02:06:47.398Z,1.97
2022-09-22T02:09:19.445Z,1.87
2022-09-22T02:11:47.660Z,2.10
2022-09-22T02:14:16.569Z,2.00
2022-09-22T02:16:45.776Z,2.13
2022-09-22T02:19:19.707Z,1.90
2022-09-22T02:21:49.160Z,2.07
2022-09-22T02:24:28.550Z,1.97
2022-09-22T02:26:57.395Z,1.90
2022-09-22T02:29:27.776Z,1.90
2022-09-22T02:31:59.500Z,1.90
2022-09-22T02:34:28.465Z,2.27
2022-09-22T02:37:04.137Z,2.13
2022-09-22T02:39:38.831Z,2.23
2022-09-22T02:42:28.027Z,1.97
2022-09-22T02:45:01.556Z,2.03
2022-09-22T02:47:35.087Z,2.07
2022-09-22T02:50:06.454Z,1.77
2022-09-22T02:52:34.240Z,1.60
2022-09-22T02:55:01.977Z,2.03
2022-09-22T02:57:29.696Z,2.07
2022-09-22T02:59:57.427Z,1.83
2022-09-22T03:02:25.452Z,1.83
2022-09-22T03:04:54.644Z,1.80
2022-09-22T03:07:22.449Z,1.80
2022-09-22T03:09:50.481Z,2.23
2022-09-22T03:12:18.520Z,1.80
2022-09-22T03:14:46.311Z,1.80
2022-09-22T03:17:14.055Z,1.63
2022-09-22T03:19:41.891Z,1.50
2022-09-22T03:22:10.993Z,1.70
2022-09-22T03:24:38.726Z,1.57
2022-09-22T03:27:06.568Z,1.57
2022-09-22T03:29:34.324Z,1.37
2022-09-22T03:32:02.391Z,2.10
2022-09-22T03:34:30.120Z,1.83
2022-09-22T03:36:57.877Z,1.83
2022-09-22T03:39:26.970Z,1.80
2022-09-22T03:41:54.754Z,1.63
2022-09-22T03:44:22.490Z,1.27
2022-09-22T03:46:50.244Z,1.63
2022-09-22T03:49:17.973Z,1.90
2022-09-22T03:51:45.720Z,1.80
2022-09-22T03:54:13.473Z,1.80
2022-09-22T03:56:42.546Z,1.80
2022-09-22T03:59:11.438Z,1.93
2022-09-22T04:01:39.237Z,1.50
2022-09-22T04:04:07.196Z,1.47
2022-09-22T04:06:36.576Z,1.53
2022-09-22T04:09:04.417Z,1.60
2022-09-22T04:11:32.880Z,1.27
2022-09-22T04:14:03.756Z,1.70
2022-09-22T04:16:32.041Z,1.50
2022-09-22T04:19:00.601Z,1.73
2022-09-22T04:21:28.359Z,2.07
2022-09-22T04:23:56.949Z,1.90
2022-09-22T04:26:24.945Z,2.03
2022-09-22T04:28:52.703Z,2.20
2022-09-22T04:31:22.728Z,2.30
2022-09-22T04:33:50.653Z,2.00
2022-09-22T04:36:18.389Z,2.13
2022-09-22T04:38:46.117Z,2.50
2022-09-22T04:41:13.836Z,2.20
2022-09-22T04:43:42.823Z,2.30
2022-09-22T04:46:10.592Z,1.90
2022-09-22T04:48:39.679Z,1.93
2022-09-22T04:51:07.389Z,2.00
2022-09-22T04:53:35.516Z,2.07
2022-09-22T04:56:03.470Z,2.83
2022-09-22T04:58:31.375Z,2.60
2022-09-22T05:01:03.597Z,2.53
2022-09-22T05:03:31.756Z,2.90
2022-09-22T05:06:00.863Z,2.80
2022-09-22T05:08:28.576Z,2.17
2022-09-22T05:10:56.673Z,2.50
2022-09-22T05:13:25.341Z,2.43
2022-09-22T05:15:53.107Z,2.63
2022-09-22T05:18:21.033Z,2.07
2022-09-22T05:20:48.754Z,2.27
2022-09-22T05:23:17.862Z,2.30
2022-09-22T05:25:45.568Z,2.63
2022-09-22T05:28:13.493Z,2.37
2022-09-22T05:30:41.249Z,2.70
2022-09-22T05:33:08.995Z,2.50
2022-09-22T05:35:37.263Z,2.37
2022-09-22T05:38:05.214Z,2.07
2022-09-22T05:40:34.379Z,2.50
2022-09-22T05:43:02.168Z,2.07
2022-09-22T05:45:29.976Z,2.43
2022-09-22T05:47:57.740Z,2.17
2022-09-22T05:50:25.464Z,2.47
2022-09-22T05:53:03.548Z,2.43
2022-09-22T05:55:31.309Z,2.37
2022-09-22T05:58:01.060Z,2.67
2022-09-22T06:00:28.988Z,2.63
2022-09-22T06:02:56.853Z,2.53
2022-09-22T06:05:24.929Z,2.80
2022-09-22T06:08:00.660Z,2.60
2022-09-22T06:10:28.497Z,2.53
2022-09-22T06:13:00.559Z,2.47
2022-09-22T06:15:28.736Z,2.33
2022-09-22T06:17:56.577Z,2.30
2022-09-22T06:20:24.444Z,2.10
2022-09-22T06:22:52.409Z,2.30
2022-09-22T06:25:20.188Z,2.30
2022-09-22T06:27:47.943Z,3.00
2022-09-22T06:30:17.087Z,2.60
2022-09-22T06:32:45.934Z,2.20
2022-09-22T06:35:13.674Z,2.63
2022-09-22T06:37:42.807Z,2.60
2022-09-22T06:40:15.262Z,2.53
2022-09-22T06:42:45.001Z,2.40
2022-09-22T06:45:13.728Z,2.30
2022-09-22T06:47:42.997Z,2.67
2022-09-22T06:50:10.889Z,2.83
2022-09-22T06:52:38.692Z,2.40
2022-09-22T06:55:07.437Z,2.80
2022-09-22T06:57:35.211Z,2.10
2022-09-22T07:00:03.754Z,2.60
2022-09-22T07:02:31.687Z,2.20
2022-09-22T07:05:00.801Z,2.37
2022-09-22T07:07:28.955Z,2.20
2022-09-22T07:09:56.833Z,2.50
2022-09-22T07:12:25.300Z,2.60
2022-09-22T07:14:54.026Z,2.50
2022-09-22T07:17:21.877Z,2.10
2022-09-22T07:19:51.004Z,2.47
2022-09-22T07:22:20.129Z,2.57
2022-09-22T07:24:47.894Z,2.30
2022-09-22T07:27:23.026Z,2.50
2022-09-22T07:29:51.953Z,2.53
2022-09-22T07:32:21.746Z,2.20
2022-09-22T07:34:49.722Z,2.20
2022-09-22T07:37:17.529Z,2.13
2022-09-22T07:39:46.661Z,2.43
2022-09-22T07:42:14.426Z,2.30
2022-09-22T07:44:59.844Z,2.00
2022-09-22T07:47:56.828Z,1.97
2022-09-22T07:50:24.606Z,2.30
2022-09-22T07:52:53.192Z,2.33
2022-09-22T07:55:24.947Z,2.10
2022-09-22T07:57:57.108Z,2.00
2022-09-22T08:00:25.933Z,1.80
2022-09-22T08:02:55.293Z,1.77
2022-09-22T08:05:24.000Z,1.53
2022-09-22T08:07:52.156Z,1.90
2022-09-22T08:10:21.773Z,2.87
2022-09-22T08:12:52.143Z,2.30
2022-09-22T08:15:24.701Z,2.70
2022-09-22T08:17:57.949Z,2.37
2022-09-22T08:20:28.768Z,1.90
2022-09-22T08:22:58.010Z,2.33
2022-09-22T08:25:27.156Z,2.37
2022-09-22T08:27:55.023Z,1.90
2022-09-22T08:30:22.807Z,1.90
2022-09-22T08:32:50.590Z,2.13
2022-09-22T08:35:18.399Z,2.37
2022-09-22T08:37:46.198Z,2.43
2022-09-22T08:40:21.073Z,1.70
2022-09-22T08:42:54.242Z,1.80
2022-09-22T08:45:31.646Z,1.63
2022-09-22T08:48:21.929Z,1.43
2022-09-22T08:51:09.787Z,1.43
2022-09-22T08:53:45.027Z,1.40
2022-09-22T08:56:20.051Z,1.27
2022-09-22T08:58:54.460Z,1.40
2022-09-22T09:01:43.650Z,0.90
2022-09-22T09:04:44.119Z,1.10
2022-09-22T09:07:21.588Z,1.23
2022-09-22T09:10:00.648Z,1.00
2022-09-22T09:12:42.960Z,1.20
2022-09-22T09:15:25.477Z,1.20
2022-09-22T09:17:58.073Z,1.30
2022-09-22T09:20:35.110Z,1.40
2022-09-22T09:23:07.189Z,1.30
2022-09-22T09:25:41.029Z,1.10
2022-09-22T09:28:14.688Z,1.00
2022-09-22T09:30:46.406Z,1.07
2022-09-22T09:33:27.113Z,1.00
2022-09-22T09:35:55.314Z,0.93
2022-09-22T09:38:30.318Z,0.87
2022-09-22T09:41:08.996Z,1.00
2022-09-22T09:43:38.036Z,1.07
2022-09-22T09:46:24.609Z,1.20
2022-09-22T09:49:05.505Z,0.80
2022-09-22T09:51:39.895Z,1.00
2022-09-22T09:54:13.181Z,1.00
2022-09-22T09:57:05.204Z,0.80
2022-09-22T09:59:56.048Z,0.90
2022-09-22T10:02:28.511Z,1.00
2022-09-22T10:04:58.457Z,0.90
2022-09-22T10:07:28.816Z,0.70
2022-09-22T10:09:57.241Z,1.23
2022-09-22T10:12:28.004Z,0.80
2022-09-22T10:14:57.661Z,0.70
2022-09-22T10:17:29.865Z,0.70
2022-09-22T10:20:20.241Z,0.80
2022-09-22T10:22:48.333Z,0.97
2022-09-22T10:25:23.607Z,0.70
2022-09-22T10:28:02.427Z,0.87
2022-09-22T10:30:32.863Z,0.80
2022-09-22T10:33:11.588Z,1.00
2022-09-22T10:35:40.363Z,0.80
2022-09-22T10:38:15.889Z,0.80
2022-09-22T10:40:47.636Z,0.90
2022-09-22T10:43:31.161Z,0.77
2022-09-22T10:46:16.919Z,0.80
2022-09-22T10:48:49.987Z,0.80
2022-09-22T10:51:27.125Z,0.80
2022-09-22T10:54:21.511Z,0.70
2022-09-22T10:56:54.475Z,0.80
2022-09-22T10:59:40.383Z,0.60
2022-09-22T11:02:34.398Z,0.63
2022-09-22T11:05:17.974Z,0.70
2022-09-22T11:08:17.131Z,0.67
2022-09-22T11:11:11.214Z,0.80
2022-09-22T11:13:48.493Z,0.50
2022-09-22T11:16:38.896Z,0.50
2022-09-22T11:19:24.691Z,0.53
2022-09-22T11:22:10.529Z,0.80
2022-09-22T11:24:49.434Z,0.67
2022-09-22T11:27:26.911Z,0.63
2022-09-22T11:30:16.092Z,0.60
2022-09-22T11:33:19.496Z,0.60
2022-09-22T11:36:12.653Z,0.60
2022-09-22T11:39:13.228Z,0.60
2022-09-22T11:41:45.147Z,0.80
2022-09-22T11:44:37.005Z,0.50
2022-09-22T11:47:24.593Z,0.73
2022-09-22T11:50:09.267Z,0.70
2022-09-22T11:52:58.551Z,0.60
2022-09-22T11:55:36.313Z,0.67
2022-09-22T11:58:11.957Z,0.53
2022-09-22T12:00:46.744Z,0.70
2022-09-22T12:03:17.432Z,0.50
2022-09-22T12:05:49.815Z,0.60
2022-09-22T12:08:21.069Z,0.63
2022-09-22T12:10:50.088Z,0.70
2022-09-22T12:13:21.713Z,0.70
2022-09-22T12:15:59.932Z,0.80
2022-09-22T12:18:38.874Z,0.60
2022-09-22T12:21:16.228Z,0.60
2022-09-22T12:23:51.196Z,0.60
2022-09-22T12:26:27.676Z,0.90
2022-09-22T12:28:58.564Z,0.60
2022-09-22T12:31:34.780Z,0.70
2022-09-22T12:34:04.976Z,0.80
2022-09-22T12:36:35.391Z,0.60
2022-09-22T12:39:16.286Z,0.57
2022-09-22T12:41:48.569Z,0.80
2022-09-22T12:44:21.953Z,0.60
2022-09-22T12:46:50.839Z,0.40
2022-09-22T12:49:22.682Z,0.50
2022-09-22T12:51:51.248Z,0.63
2022-09-22T12:54:47.623Z,0.60
2022-09-22T12:57:44.500Z,0.63
2022-09-22T13:00:32.154Z,0.73
2022-09-22T13:03:01.519Z,0.60
2022-09-22T13:05:34.733Z,0.60
2022-09-22T13:08:03.291Z,0.60
2022-09-22T13:10:55.333Z,0.50
2022-09-22T13:13:36.837Z,0.70
2022-09-22T13:16:35.374Z,0.63
2022-09-22T13:19:04.631Z,0.60
2022-09-22T13:21:34.323Z,0.70
2022-09-22T13:24:04.945Z,0.60
2022-09-22T13:26:34.873Z,0.50
2022-09-22T13:29:06.550Z,0.70
2022-09-22T13:31:40.893Z,0.50
2022-09-22T13:34:23.464Z,0.67
2022-09-22T13:36:52.889Z,0.70
2022-09-22T13:39:23.306Z,0.60
2022-09-22T13:41:53.632Z,0.57
2022-09-22T13:44:26.975Z,0.50
2022-09-22T13:46:58.265Z,0.50
2022-09-22T13:49:32.116Z,0.40
2022-09-22T13:52:04.972Z,0.50
2022-09-22T13:54:35.556Z,0.60
2022-09-22T13:57:06.865Z,0.60
2022-09-22T13:59:40.765Z,0.50
2022-09-22T14:02:12.370Z,0.53
2022-09-22T14:04:50.663Z,0.50
2022-09-22T14:07:20.031Z,0.60
2022-09-22T14:09:48.517Z,0.50
2022-09-22T14:12:17.326Z,0.60
2022-09-22T14:14:45.132Z,0.50
2022-09-22T14:17:18.924Z,0.70
2022-09-22T14:19:53.429Z,0.70
2022-09-22T14:22:24.188Z,0.60
2022-09-22T14:24:55.409Z,0.50
2022-09-22T14:27:27.386Z,0.50
2022-09-22T14:29:56.679Z,0.70
2022-09-22T14:32:33.694Z,0.73
2022-09-22T14:35:04.612Z,0.60
2022-09-22T14:37:36.489Z,0.67
2022-09-22T14:40:14.377Z,0.70
2022-09-22T14:42:42.229Z,0.60
2022-09-22T14:45:21.820Z,0.70
2022-09-22T14:48:16.137Z,1.03
2022-09-22T14:50:46.173Z,0.97
2022-09-22T14:53:18.972Z,0.90
2022-09-22T14:55:49.037Z,0.70
2022-09-22T14:58:19.088Z,1.27
2022-09-22T15:01:12.745Z,1.07
2022-09-22T15:03:43.481Z,1.10
2022-09-22T15:06:14.466Z,1.03
2022-09-22T15:08:44.756Z,1.10
2022-09-22T15:11:12.968Z,1.00
2022-09-22T15:13:42.594Z,1.00
2022-09-22T15:16:39.096Z,1.10
2022-09-22T15:19:11.742Z,0.97
2022-09-22T15:21:48.284Z,0.97
2022-09-22T15:24:26.019Z,0.60
2022-09-22T15:26:57.210Z,0.70
2022-09-22T15:29:24.952Z,0.70
2022-09-22T15:31:52.697Z,0.80
2022-09-22T15:34:21.776Z,0.80
2022-09-22T15:36:51.163Z,0.50
2022-09-22T15:39:22.648Z,0.80
2022-09-22T15:41:50.724Z,0.60
2022-09-22T15:44:18.640Z,0.80
2022-09-22T15:46:51.160Z,0.70
2022-09-22T15:49:23.218Z,0.60
2022-09-22T15:51:52.496Z,0.63
2022-09-22T15:54:21.940Z,0.90
2022-09-22T15:56:52.157Z,0.60
2022-09-22T15:59:22.189Z,0.53
2022-09-22T16:01:51.783Z,0.80
2022-09-22T16:04:19.974Z,0.80
2022-09-22T16:06:54.123Z,0.60
2022-09-22T16:09:21.932Z,0.60
2022-09-22T16:11:49.795Z,0.97
2022-09-22T16:14:18.217Z,0.90
2022-09-22T16:16:45.969Z,1.10
2022-09-22T16:19:13.849Z,0.90
2022-09-22T16:21:49.489Z,0.70
2022-09-22T16:24:18.853Z,0.80
2022-09-22T16:26:46.594Z,0.73
2022-09-22T16:29:14.468Z,0.90
2022-09-22T16:31:42.301Z,0.50
2022-09-22T16:34:11.674Z,0.70
2022-09-22T16:36:39.845Z,0.70
2022-09-22T16:39:07.662Z,0.80
2022-09-22T16:41:37.187Z,0.70
2022-09-22T16:44:05.471Z,0.60
2022-09-22T16:46:34.931Z,0.77
2022-09-22T16:49:05.164Z,0.60
2022-09-22T16:51:35.348Z,0.60
2022-09-22T16:54:03.252Z,0.73
2022-09-22T16:56:32.657Z,0.50
2022-09-22T16:59:03.070Z,0.77
2022-09-22T17:01:32.616Z,0.60
2022-09-22T17:04:00.417Z,0.80
2022-09-22T17:06:28.470Z,0.60
2022-09-22T17:08:58.300Z,0.70
2022-09-22T17:11:30.050Z,0.60
2022-09-22T17:14:01.281Z,0.83
2022-09-22T17:16:33.468Z,0.80
2022-09-22T17:19:03.218Z,1.03
2022-09-22T17:21:34.405Z,0.83
2022-09-22T17:24:03.406Z,1.00
2022-09-22T17:26:32.619Z,0.70
2022-09-22T17:29:00.477Z,0.90
2022-09-22T17:31:30.998Z,0.80
2022-09-22T17:33:59.310Z,0.87
2022-09-22T17:36:28.752Z,0.80
2022-09-22T17:38:58.380Z,1.10
2022-09-22T17:41:29.485Z,1.07
2022-09-22T17:43:57.472Z,1.20
2022-09-22T17:46:26.666Z,1.37
2022-09-22T17:49:13.631Z,1.30
2022-09-22T17:52:00.684Z,1.23
2022-09-22T17:54:48.042Z,1.30
2022-09-22T17:57:18.022Z,0.93
2022-09-22T17:59:47.165Z,1.00
2022-09-22T18:02:16.347Z,1.10
2022-09-22T18:04:46.088Z,1.00
2022-09-22T18:07:17.810Z,1.20
2022-09-22T18:09:47.445Z,1.00
2022-09-22T18:12:19.708Z,1.27
2022-09-22T18:14:48.771Z,1.47
2022-09-22T18:17:18.057Z,1.37
2022-09-22T18:19:47.227Z,1.60
2022-09-22T18:22:17.006Z,1.60
2022-09-22T18:24:45.118Z,1.60
2022-09-22T18:27:13.175Z,1.90
2022-09-22T18:29:40.944Z,1.70
2022-09-22T18:32:08.660Z,1.77
2022-09-22T18:34:37.540Z,1.53
2022-09-22T18:37:06.621Z,1.30
2022-09-22T18:39:35.121Z,1.40
2022-09-22T18:42:02.882Z,1.20
2022-09-22T18:44:30.656Z,1.33
2022-09-22T18:47:03.056Z,1.47
2022-09-22T18:49:33.240Z,1.60
2022-09-22T18:52:02.277Z,1.30
2022-09-22T18:54:31.370Z,1.13
2022-09-22T18:56:59.137Z,1.33
2022-09-22T18:59:28.080Z,1.50
2022-09-22T19:01:56.174Z,1.60
2022-09-22T19:04:26.503Z,1.90
2022-09-22T19:07:13.775Z,2.50
2022-09-22T19:09:44.290Z,2.13
2022-09-22T19:12:13.936Z,2.30
2022-09-22T19:14:42.033Z,2.13
2022-09-22T19:17:11.407Z,2.37
2022-09-22T19:19:42.235Z,2.90
2022-09-22T19:22:13.593Z,2.73
2022-09-22T19:24:46.062Z,3.67
2022-09-22T19:27:15.279Z,3.77
2022-09-22T19:29:43.116Z,3.80
2022-09-22T19:32:10.873Z,3.63
2022-09-22T19:34:38.620Z,3.30
2022-09-22T19:37:06.857Z,3.50
2022-09-22T19:39:34.794Z,3.30
2022-09-22T19:42:04.037Z,3.43
2022-09-22T19:44:32.345Z,2.90
2022-09-22T19:47:00.110Z,2.83
2022-09-22T19:49:28.237Z,2.43
2022-09-22T19:51:55.985Z,2.47
2022-09-22T19:54:24.045Z,3.20
2022-09-22T19:56:51.813Z,3.40
2022-09-22T19:59:20.924Z,3.40
2022-09-22T20:01:49.062Z,4.07
2022-09-22T20:04:18.825Z,4.30
2022-09-22T20:06:47.645Z,3.83
2022-09-22T20:09:15.582Z,3.70
2022-09-22T20:11:45.511Z,3.90
2022-09-22T20:14:25.152Z,4.10
2022-09-22T20:16:55.971Z,3.63
2022-09-22T20:19:25.840Z,4.27
2022-09-22T20:21:54.917Z,4.53
2022-09-22T20:24:24.008Z,4.07
2022-09-22T20:26:53.507Z,3.63
2022-09-22T20:29:21.379Z,3.63
2022-09-22T20:31:49.151Z,3.50
2022-09-22T20:34:18.355Z,3.90
2022-09-22T20:36:46.107Z,3.17
2022-09-22T20:39:15.225Z,3.33
2022-09-22T20:41:44.119Z,3.07
2022-09-22T20:44:14.475Z,3.00
2022-09-22T20:46:43.049Z,2.67
2022-09-22T20:49:13.465Z,3.23
2022-09-22T20:51:42.757Z,3.70
2022-09-22T20:54:10.824Z,4.20
2022-09-22T20:56:42.621Z,4.23
2022-09-22T20:59:11.067Z,3.53
2022-09-22T21:01:38.852Z,3.07
2022-09-22T21:04:06.862Z,3.20
2022-09-22T21:06:34.668Z,3.30
2022-09-22T21:09:21.229Z,3.43
2022-09-22T21:11:48.966Z,3.77
2022-09-22T21:14:16.931Z,3.77
2022-09-22T21:16:44.675Z,3.70
2022-09-22T21:19:12.629Z,3.70
2022-09-22T21:21:40.721Z,3.80
2022-09-22T21:24:10.974Z,3.50
2022-09-22T21:26:38.722Z,3.03
2022-09-22T21:29:06.497Z,4.10
2022-09-22T21:31:35.599Z,4.10
2022-09-22T21:34:03.397Z,4.10
2022-09-22T21:36:31.146Z,4.30
2022-09-22T21:39:00.362Z,4.90
2022-09-22T21:41:31.097Z,4.97
2022-09-22T21:43:59.870Z,6.20
2022-09-22T21:46:29.700Z,5.40
2022-09-22T21:49:01.417Z,5.87
2022-09-22T21:51:30.373Z,4.47
2022-09-22T21:53:58.148Z,4.80
2022-09-22T21:56:26.841Z,4.40
2022-09-22T21:58:56.424Z,4.07
2022-09-22T22:01:26.299Z,3.97
2022-09-22T22:03:56.317Z,3.53
2022-09-22T22:06:26.104Z,3.23
2022-09-22T22:09:01.402Z,3.23
2022-09-22T22:11:31.112Z,2.90
2022-09-22T22:14:01.808Z,3.07
2022-09-22T22:16:32.853Z,2.80
2022-09-22T22:19:01.081Z,2.60
2022-09-22T22:21:30.728Z,2.63
2022-09-22T22:24:20.848Z,2.53
2022-09-22T22:26:51.313Z,2.70
2022-09-22T22:29:21.343Z,3.20
2022-09-22T22:31:49.861Z,3.07
2022-09-22T22:34:19.243Z,3.43
2022-09-22T22:36:48.677Z,3.10
2022-09-22T22:39:16.982Z,3.33
2022-09-22T22:41:45.382Z,3.20
2022-09-22T22:44:13.221Z,2.90
2022-09-22T22:46:42.361Z,2.53
2022-09-22T22:49:11.454Z,2.77
2022-09-22T22:51:42.641Z,2.60
2022-09-22T22:54:11.595Z,3.13
2022-09-22T22:56:42.518Z,3.30
2022-09-22T22:59:11.934Z,3.50
2022-09-22T23:01:40.249Z,3.30
2022-09-22T23:04:11.704Z,2.77
2022-09-22T23:06:43.686Z,2.80
2022-09-22T23:09:14.498Z,2.90
2022-09-22T23:11:43.784Z,2.67
2022-09-22T23:14:13.060Z,2.50
2022-09-22T23:16:43.027Z,3.10
2022-09-22T23:19:14.517Z,2.70
2022-09-22T23:21:42.585Z,2.80
2022-09-22T23:24:15.193Z,2.27
2022-09-22T23:26:43.041Z,2.30
2022-09-22T23:29:10.871Z,2.50
2022-09-22T23:31:38.702Z,2.40
2022-09-22T23:34:06.444Z,2.40
2022-09-22T23:36:35.620Z,2.57
2022-09-22T23:39:04.641Z,2.20
2022-09-22T23:41:33.526Z,2.10
2022-09-22T23:44:02.667Z,2.50
2022-09-22T23:46:30.644Z,2.50
2022-09-22T23:48:59.870Z,2.40
2022-09-22T23:51:27.818Z,2.20
2022-09-22T23:53:57.651Z,2.40
2022-09-22T23:56:27.527Z,3.03
2022-09-22T23:58:55.322Z,2.20
